메인 페이지
METAR-TAF:

METAR-TAF

공항 :

바레인, 바레인

바레인 국제공항

위도: 26-16N, 경도: 050-39E, 고도: 2m

현재 날씨관측

예보는 19분 전, 10:30시(UTC)에 발표되었습니다.
북동4kt풍과 풍을 오가는
온도 28°C
습도 48%
기압 1011 hPa
시정 10km 이상
1500m 미만 상공 구름 및 적란운 없음

METAR: OBBI 251030Z 05004KT 360V090 CAVOK 28/16 Q1011 NOSIG

시각: 13:49 (10:49 UTC)

예보

예보는 5 시간 49분 전, 05:00시(UTC)에 발표되었습니다.
예보 대상 시간: 25일 06시부터 26일 12시까지 (UTC)
10kt
시정 10km 이상
1500m 미만 상공 구름 및 적란운 없음
확률 30% :
일시적
25일 06시부터 25일 12시까지 (UTC)
북북서20kt, 순간 최대 풍속 35kt
시정: 5000m
고도 4000ft 상공 구름 조금, 적란운.
고도 10000ft 상공 구름 많음
뇌우, 약한비
전환 중
25일 20시부터 25일 22시까지 (UTC)
여러 방향의 바람 5kt

TAF: OBBI 250500Z 2506/2612 35010KT CAVOK PROB30 TEMPO 2506/2512 33020G35KT 5000 -TSRA FEW040CB BKN100 BECMG 2520/2522 VRB05KT

4,000개 이상의 공항 관측 자료 및 예보 (METAR 및 TAF 보고).

지도상에서 검색 가능한 기상관측소가 노란 점과 빨간 점으로 표시되어 있습니다.

기상관측소 명을 보려면 표시 위로 마우스를 이동하세요.

날씨 관측과 예보를 보려면 클릭하세요.

지도 변경 : 확대하려면 엑스 표시가 있는 녹색 버튼, 축소하려면 빼기 표시가 있는 녹색 버튼, 다음 페이지의 지도를 보려면 녹색 화살표를 클릭하세요.


METAR-TAF: